sensor_id;sensor_type;location;lat;lon;timestamp;temperature;humidity
9984;DHT22;16737;50.932;6.780;2023-12-29T00:01:21;13.60;91.90
9984;DHT22;16737;50.932;6.780;2023-12-29T00:03:48;13.60;91.90
9984;DHT22;16737;50.932;6.780;2023-12-29T00:06:15;13.60;91.80
9984;DHT22;16737;50.932;6.780;2023-12-29T00:08:42;13.70;91.90
9984;DHT22;16737;50.932;6.780;2023-12-29T00:11:16;13.70;91.80
9984;DHT22;16737;50.932;6.780;2023-12-29T00:13:43;13.70;91.70
9984;DHT22;16737;50.932;6.780;2023-12-29T00:16:12;13.70;91.70
9984;DHT22;16737;50.932;6.780;2023-12-29T00:18:39;13.80;91.80
9984;DHT22;16737;50.932;6.780;2023-12-29T00:21:06;13.80;91.70
9984;DHT22;16737;50.932;6.780;2023-12-29T00:23:33;13.80;91.70
9984;DHT22;16737;50.932;6.780;2023-12-29T00:26:00;13.80;91.70
9984;DHT22;16737;50.932;6.780;2023-12-29T00:28:27;13.80;91.70
9984;DHT22;16737;50.932;6.780;2023-12-29T00:30:54;13.80;91.70
9984;DHT22;16737;50.932;6.780;2023-12-29T00:33:23;13.80;91.60
9984;DHT22;16737;50.932;6.780;2023-12-29T00:35:50;13.90;91.60
9984;DHT22;16737;50.932;6.780;2023-12-29T00:38:17;13.90;91.60
9984;DHT22;16737;50.932;6.780;2023-12-29T00:40:44;13.90;91.60
9984;DHT22;16737;50.932;6.780;2023-12-29T00:43:11;13.90;91.60
9984;DHT22;16737;50.932;6.780;2023-12-29T00:45:39;13.90;91.50
9984;DHT22;16737;50.932;6.780;2023-12-29T00:48:06;13.90;91.50
9984;DHT22;16737;50.932;6.780;2023-12-29T00:50:36;13.90;91.50
9984;DHT22;16737;50.932;6.780;2023-12-29T00:53:03;14.00;91.50
9984;DHT22;16737;50.932;6.780;2023-12-29T00:55:30;14.00;91.60
9984;DHT22;16737;50.932;6.780;2023-12-29T00:57:57;14.00;91.50
9984;DHT22;16737;50.932;6.780;2023-12-29T01:00:24;14.00;91.40
9984;DHT22;16737;50.932;6.780;2023-12-29T01:02:51;13.90;91.40
9984;DHT22;16737;50.932;6.780;2023-12-29T01:05:18;13.90;91.40
9984;DHT22;16737;50.932;6.780;2023-12-29T01:07:47;14.00;91.50
9984;DHT22;16737;50.932;6.780;2023-12-29T01:10:14;14.00;91.50
9984;DHT22;16737;50.932;6.780;2023-12-29T01:12:43;13.90;91.40
9984;DHT22;16737;50.932;6.780;2023-12-29T01:15:12;13.90;91.50
9984;DHT22;16737;50.932;6.780;2023-12-29T01:17:39;14.00;91.50
9984;DHT22;16737;50.932;6.780;2023-12-29T01:20:06;14.00;91.50
9984;DHT22;16737;50.932;6.780;2023-12-29T01:22:34;14.00;91.50
9984;DHT22;16737;50.932;6.780;2023-12-29T01:25:03;14.00;91.50
9984;DHT22;16737;50.932;6.780;2023-12-29T01:27:31;14.00;91.50
9984;DHT22;16737;50.932;6.780;2023-12-29T01:29:58;13.90;91.40
9984;DHT22;16737;50.932;6.780;2023-12-29T01:32:26;14.00;91.50
9984;DHT22;16737;50.932;6.780;2023-12-29T01:34:53;14.00;91.50
9984;DHT22;16737;50.932;6.780;2023-12-29T01:37:20;13.90;91.50
9984;DHT22;16737;50.932;6.780;2023-12-29T01:39:47;13.90;91.50
9984;DHT22;16737;50.932;6.780;2023-12-29T01:42:15;13.90;91.50
9984;DHT22;16737;50.932;6.780;2023-12-29T01:44:42;14.00;91.50
9984;DHT22;16737;50.932;6.780;2023-12-29T01:47:13;13.90;91.50
9984;DHT22;16737;50.932;6.780;2023-12-29T01:49:44;13.90;91.50
9984;DHT22;16737;50.932;6.780;2023-12-29T01:52:13;13.90;91.50
9984;DHT22;16737;50.932;6.780;2023-12-29T01:54:43;13.90;91.50
9984;DHT22;16737;50.932;6.780;2023-12-29T01:57:12;13.90;91.50
9984;DHT22;16737;50.932;6.780;2023-12-29T01:59:41;13.90;91.50
9984;DHT22;16737;50.932;6.780;2023-12-29T02:02:09;13.90;91.50
9984;DHT22;16737;50.932;6.780;2023-12-29T02:04:37;13.90;91.50
9984;DHT22;16737;50.932;6.780;2023-12-29T02:07:05;13.90;91.50
9984;DHT22;16737;50.932;6.780;2023-12-29T02:09:32;13.90;91.60
9984;DHT22;16737;50.932;6.780;2023-12-29T02:12:00;13.90;91.60
9984;DHT22;16737;50.932;6.780;2023-12-29T02:14:28;13.90;91.50
9984;DHT22;16737;50.932;6.780;2023-12-29T02:17:01;14.00;91.60
9984;DHT22;16737;50.932;6.780;2023-12-29T02:19:43;13.90;91.50
9984;DHT22;16737;50.932;6.780;2023-12-29T02:22:12;13.90;91.50
9984;DHT22;16737;50.932;6.780;2023-12-29T02:24:39;13.90;91.50
9984;DHT22;16737;50.932;6.780;2023-12-29T02:27:25;13.90;91.50
9984;DHT22;16737;50.932;6.780;2023-12-29T02:30:09;13.90;91.50
9984;DHT22;16737;50.932;6.780;2023-12-29T02:32:39;13.90;91.50
9984;DHT22;16737;50.932;6.780;2023-12-29T02:35:11;13.90;91.60
9984;DHT22;16737;50.932;6.780;2023-12-29T02:37:40;13.90;91.60
9984;DHT22;16737;50.932;6.780;2023-12-29T02:40:11;14.00;91.60
9984;DHT22;16737;50.932;6.780;2023-12-29T02:42:38;14.00;91.60
9984;DHT22;16737;50.932;6.780;2023-12-29T02:45:05;14.00;91.60
9984;DHT22;16737;50.932;6.780;2023-12-29T02:47:33;14.00;91.70
9984;DHT22;16737;50.932;6.780;2023-12-29T02:50:00;14.00;91.70
9984;DHT22;16737;50.932;6.780;2023-12-29T02:52:27;14.00;91.70
9984;DHT22;16737;50.932;6.780;2023-12-29T02:54:54;14.00;91.70
9984;DHT22;16737;50.932;6.780;2023-12-29T02:57:23;14.00;91.70
9984;DHT22;16737;50.932;6.780;2023-12-29T02:59:50;14.00;91.70
9984;DHT22;16737;50.932;6.780;2023-12-29T03:02:17;14.00;91.70
9984;DHT22;16737;50.932;6.780;2023-12-29T03:04:44;14.00;91.70
9984;DHT22;16737;50.932;6.780;2023-12-29T03:07:11;14.00;91.70
9984;DHT22;16737;50.932;6.780;2023-12-29T03:09:38;14.00;91.70
9984;DHT22;16737;50.932;6.780;2023-12-29T03:12:06;14.00;91.70
9984;DHT22;16737;50.932;6.780;2023-12-29T03:14:34;14.00;91.80
9984;DHT22;16737;50.932;6.780;2023-12-29T03:17:01;14.00;91.80
9984;DHT22;16737;50.932;6.780;2023-12-29T03:19:28;14.00;91.80
9984;DHT22;16737;50.932;6.780;2023-12-29T03:21:56;14.00;91.80
9984;DHT22;16737;50.932;6.780;2023-12-29T03:24:23;14.00;91.80
9984;DHT22;16737;50.932;6.780;2023-12-29T03:26:50;14.00;91.80
9984;DHT22;16737;50.932;6.780;2023-12-29T03:29:18;14.00;91.80
9984;DHT22;16737;50.932;6.780;2023-12-29T03:31:46;14.00;91.80
9984;DHT22;16737;50.932;6.780;2023-12-29T03:34:13;14.00;91.80
9984;DHT22;16737;50.932;6.780;2023-12-29T03:36:40;14.00;91.80
9984;DHT22;16737;50.932;6.780;2023-12-29T03:39:07;14.00;91.80
9984;DHT22;16737;50.932;6.780;2023-12-29T03:41:34;14.00;91.80
9984;DHT22;16737;50.932;6.780;2023-12-29T03:44:01;14.00;91.90
9984;DHT22;16737;50.932;6.780;2023-12-29T03:46:28;14.00;91.90
9984;DHT22;16737;50.932;6.780;2023-12-29T03:48:57;14.00;91.90
9984;DHT22;16737;50.932;6.780;2023-12-29T03:51:24;14.00;91.90
9984;DHT22;16737;50.932;6.780;2023-12-29T03:53:51;14.00;91.90
9984;DHT22;16737;50.932;6.780;2023-12-29T03:56:18;14.00;91.90
9984;DHT22;16737;50.932;6.780;2023-12-29T03:58:46;14.00;91.90
9984;DHT22;16737;50.932;6.780;2023-12-29T04:01:14;14.00;91.90
9984;DHT22;16737;50.932;6.780;2023-12-29T04:03:43;14.00;91.90
9984;DHT22;16737;50.932;6.780;2023-12-29T04:06:11;14.00;91.90
9984;DHT22;16737;50.932;6.780;2023-12-29T04:08:38;14.00;91.90
9984;DHT22;16737;50.932;6.780;2023-12-29T04:11:05;14.00;91.90
9984;DHT22;16737;50.932;6.780;2023-12-29T04:13:32;14.00;91.90
9984;DHT22;16737;50.932;6.780;2023-12-29T04:15:59;14.00;91.90
9984;DHT22;16737;50.932;6.780;2023-12-29T04:18:27;14.00;91.90
9984;DHT22;16737;50.932;6.780;2023-12-29T04:20:55;14.00;91.90
9984;DHT22;16737;50.932;6.780;2023-12-29T04:23:23;14.00;91.90
9984;DHT22;16737;50.932;6.780;2023-12-29T04:25:51;14.00;91.90
9984;DHT22;16737;50.932;6.780;2023-12-29T04:28:18;14.00;91.90
9984;DHT22;16737;50.932;6.780;2023-12-29T04:30:45;14.00;91.90
9984;DHT22;16737;50.932;6.780;2023-12-29T04:33:12;14.00;91.90
9984;DHT22;16737;50.932;6.780;2023-12-29T04:35:39;14.00;91.90
9984;DHT22;16737;50.932;6.780;2023-12-29T04:38:06;14.00;91.90
9984;DHT22;16737;50.932;6.780;2023-12-29T04:40:34;14.00;91.90
9984;DHT22;16737;50.932;6.780;2023-12-29T04:43:01;14.00;92.00
9984;DHT22;16737;50.932;6.780;2023-12-29T04:45:28;14.00;92.00
9984;DHT22;16737;50.932;6.780;2023-12-29T04:47:55;14.00;92.00
9984;DHT22;16737;50.932;6.780;2023-12-29T04:50:22;14.00;92.00
9984;DHT22;16737;50.932;6.780;2023-12-29T04:52:49;14.00;92.00
9984;DHT22;16737;50.932;6.780;2023-12-29T04:55:16;14.00;92.00
9984;DHT22;16737;50.932;6.780;2023-12-29T04:57:45;14.00;92.00
9984;DHT22;16737;50.932;6.780;2023-12-29T05:00:12;14.00;92.10
9984;DHT22;16737;50.932;6.780;2023-12-29T05:02:41;14.00;92.10
9984;DHT22;16737;50.932;6.780;2023-12-29T05:05:09;14.00;92.10
9984;DHT22;16737;50.932;6.780;2023-12-29T05:07:36;14.00;92.10
9984;DHT22;16737;50.932;6.780;2023-12-29T05:10:04;14.00;92.10
9984;DHT22;16737;50.932;6.780;2023-12-29T05:12:31;14.00;92.10
9984;DHT22;16737;50.932;6.780;2023-12-29T05:15:00;14.00;92.10
9984;DHT22;16737;50.932;6.780;2023-12-29T05:17:27;14.00;92.00
9984;DHT22;16737;50.932;6.780;2023-12-29T05:19:56;14.00;92.00
9984;DHT22;16737;50.932;6.780;2023-12-29T05:22:23;14.00;92.00
9984;DHT22;16737;50.932;6.780;2023-12-29T05:24:50;14.00;92.00
9984;DHT22;16737;50.932;6.780;2023-12-29T05:27:17;14.00;92.00
9984;DHT22;16737;50.932;6.780;2023-12-29T05:29:45;13.90;91.90
9984;DHT22;16737;50.932;6.780;2023-12-29T05:32:13;13.90;91.90
9984;DHT22;16737;50.932;6.780;2023-12-29T05:34:40;13.90;91.90
9984;DHT22;16737;50.932;6.780;2023-12-29T05:37:07;13.80;91.90
9984;DHT22;16737;50.932;6.780;2023-12-29T05:39:34;13.80;92.20
9984;DHT22;16737;50.932;6.780;2023-12-29T05:42:01;13.80;92.00
9984;DHT22;16737;50.932;6.780;2023-12-29T05:44:29;13.80;91.90
9984;DHT22;16737;50.932;6.780;2023-12-29T05:46:56;13.80;91.90
9984;DHT22;16737;50.932;6.780;2023-12-29T05:49:26;13.80;92.00
9984;DHT22;16737;50.932;6.780;2023-12-29T05:51:53;13.70;91.90
9984;DHT22;16737;50.932;6.780;2023-12-29T05:54:20;13.70;91.90
9984;DHT22;16737;50.932;6.780;2023-12-29T05:56:47;13.70;92.00
9984;DHT22;16737;50.932;6.780;2023-12-29T05:59:15;13.70;92.00
9984;DHT22;16737;50.932;6.780;2023-12-29T06:01:42;13.70;92.00
9984;DHT22;16737;50.932;6.780;2023-12-29T06:04:09;13.60;91.90
9984;DHT22;16737;50.932;6.780;2023-12-29T06:06:37;13.60;91.90
9984;DHT22;16737;50.932;6.780;2023-12-29T06:09:04;13.60;92.00
9984;DHT22;16737;50.932;6.780;2023-12-29T06:11:31;13.60;92.00
9984;DHT22;16737;50.932;6.780;2023-12-29T06:13:59;13.60;92.00
9984;DHT22;16737;50.932;6.780;2023-12-29T06:16:27;13.50;92.00
9984;DHT22;16737;50.932;6.780;2023-12-29T06:18:55;13.50;92.00
9984;DHT22;16737;50.932;6.780;2023-12-29T06:21:22;13.50;92.00
9984;DHT22;16737;50.932;6.780;2023-12-29T06:23:52;13.50;92.00
9984;DHT22;16737;50.932;6.780;2023-12-29T06:26:20;13.50;92.00
9984;DHT22;16737;50.932;6.780;2023-12-29T06:28:48;13.50;92.00
9984;DHT22;16737;50.932;6.780;2023-12-29T06:31:17;13.50;92.10
9984;DHT22;16737;50.932;6.780;2023-12-29T06:33:45;13.50;92.10
9984;DHT22;16737;50.932;6.780;2023-12-29T06:36:14;13.50;92.10
9984;DHT22;16737;50.932;6.780;2023-12-29T06:38:41;13.50;92.10
9984;DHT22;16737;50.932;6.780;2023-12-29T06:41:15;13.40;92.00
9984;DHT22;16737;50.932;6.780;2023-12-29T06:43:42;13.40;92.00
9984;DHT22;16737;50.932;6.780;2023-12-29T06:46:09;13.50;92.10
9984;DHT22;16737;50.932;6.780;2023-12-29T06:48:38;13.40;92.10
9984;DHT22;16737;50.932;6.780;2023-12-29T06:51:05;13.40;92.10
9984;DHT22;16737;50.932;6.780;2023-12-29T06:53:32;13.50;92.10
9984;DHT22;16737;50.932;6.780;2023-12-29T06:55:59;13.50;92.10
9984;DHT22;16737;50.932;6.780;2023-12-29T06:58:28;13.50;92.10
9984;DHT22;16737;50.932;6.780;2023-12-29T07:00:56;13.50;92.20
9984;DHT22;16737;50.932;6.780;2023-12-29T07:03:23;13.50;92.20
9984;DHT22;16737;50.932;6.780;2023-12-29T07:05:50;13.50;92.20
9984;DHT22;16737;50.932;6.780;2023-12-29T07:08:17;13.50;92.20
9984;DHT22;16737;50.932;6.780;2023-12-29T07:10:44;13.50;92.20
9984;DHT22;16737;50.932;6.780;2023-12-29T07:13:15;13.50;92.50
9984;DHT22;16737;50.932;6.780;2023-12-29T07:15:43;13.50;92.20
9984;DHT22;16737;50.932;6.780;2023-12-29T07:18:10;13.50;92.20
9984;DHT22;16737;50.932;6.780;2023-12-29T07:20:38;13.50;92.20
9984;DHT22;16737;50.932;6.780;2023-12-29T07:23:05;13.50;92.10
9984;DHT22;16737;50.932;6.780;2023-12-29T07:25:32;13.50;92.20
9984;DHT22;16737;50.932;6.780;2023-12-29T07:27:59;13.50;92.20
9984;DHT22;16737;50.932;6.780;2023-12-29T07:30:26;13.50;92.20
9984;DHT22;16737;50.932;6.780;2023-12-29T07:32:55;13.50;92.20
9984;DHT22;16737;50.932;6.780;2023-12-29T07:35:23;13.50;92.20
9984;DHT22;16737;50.932;6.780;2023-12-29T07:37:50;13.60;92.20
9984;DHT22;16737;50.932;6.780;2023-12-29T07:40:18;13.60;92.20
9984;DHT22;16737;50.932;6.780;2023-12-29T07:42:45;13.60;92.20
9984;DHT22;16737;50.932;6.780;2023-12-29T07:45:15;13.60;92.30
9984;DHT22;16737;50.932;6.780;2023-12-29T07:47:43;13.60;92.30
9984;DHT22;16737;50.932;6.780;2023-12-29T07:50:11;13.60;92.30
9984;DHT22;16737;50.932;6.780;2023-12-29T07:52:38;13.60;92.30
9984;DHT22;16737;50.932;6.780;2023-12-29T07:55:06;13.60;92.30
9984;DHT22;16737;50.932;6.780;2023-12-29T07:57:32;13.70;92.40
9984;DHT22;16737;50.932;6.780;2023-12-29T07:59:59;13.70;92.40
9984;DHT22;16737;50.932;6.780;2023-12-29T08:02:26;13.70;92.40
9984;DHT22;16737;50.932;6.780;2023-12-29T08:04:54;13.70;92.50
9984;DHT22;16737;50.932;6.780;2023-12-29T08:07:22;13.70;92.50
9984;DHT22;16737;50.932;6.780;2023-12-29T08:09:49;13.70;92.60
9984;DHT22;16737;50.932;6.780;2023-12-29T08:12:16;13.70;92.50
9984;DHT22;16737;50.932;6.780;2023-12-29T08:14:43;13.70;92.60
9984;DHT22;16737;50.932;6.780;2023-12-29T08:17:10;13.60;92.60
9984;DHT22;16737;50.932;6.780;2023-12-29T08:19:38;13.60;92.70
9984;DHT22;16737;50.932;6.780;2023-12-29T08:22:06;13.60;92.80
9984;DHT22;16737;50.932;6.780;2023-12-29T08:24:34;13.60;92.90
9984;DHT22;16737;50.932;6.780;2023-12-29T08:27:02;13.60;93.00
9984;DHT22;16737;50.932;6.780;2023-12-29T08:29:30;13.50;92.90
9984;DHT22;16737;50.932;6.780;2023-12-29T08:31:58;13.50;93.00
9984;DHT22;16737;50.932;6.780;2023-12-29T08:34:27;13.50;93.10
9984;DHT22;16737;50.932;6.780;2023-12-29T08:36:54;13.40;93.20
9984;DHT22;16737;50.932;6.780;2023-12-29T08:39:21;13.40;93.30
9984;DHT22;16737;50.932;6.780;2023-12-29T08:41:50;13.40;93.40
9984;DHT22;16737;50.932;6.780;2023-12-29T08:44:17;13.40;93.50
9984;DHT22;16737;50.932;6.780;2023-12-29T08:46:44;13.40;93.50
9984;DHT22;16737;50.932;6.780;2023-12-29T08:49:11;13.30;93.50
9984;DHT22;16737;50.932;6.780;2023-12-29T08:51:38;13.30;93.50
9984;DHT22;16737;50.932;6.780;2023-12-29T08:54:05;13.30;93.60
9984;DHT22;16737;50.932;6.780;2023-12-29T08:56:33;13.30;93.70
9984;DHT22;16737;50.932;6.780;2023-12-29T08:59:01;13.30;93.70
9984;DHT22;16737;50.932;6.780;2023-12-29T09:01:28;13.30;94.10
9984;DHT22;16737;50.932;6.780;2023-12-29T09:03:56;13.20;93.80
9984;DHT22;16737;50.932;6.780;2023-12-29T09:06:23;13.20;93.90
9984;DHT22;16737;50.932;6.780;2023-12-29T09:08:50;13.20;93.90
9984;DHT22;16737;50.932;6.780;2023-12-29T09:11:17;13.20;94.00
9984;DHT22;16737;50.932;6.780;2023-12-29T09:13:46;13.20;94.00
9984;DHT22;16737;50.932;6.780;2023-12-29T09:16:14;13.20;94.00
9984;DHT22;16737;50.932;6.780;2023-12-29T09:18:41;13.20;94.10
9984;DHT22;16737;50.932;6.780;2023-12-29T09:21:09;13.20;94.10
9984;DHT22;16737;50.932;6.780;2023-12-29T09:23:37;13.20;94.10
9984;DHT22;16737;50.932;6.780;2023-12-29T09:26:05;13.20;94.20
9984;DHT22;16737;50.932;6.780;2023-12-29T09:28:32;13.20;94.20
9984;DHT22;16737;50.932;6.780;2023-12-29T09:31:00;13.20;94.30
9984;DHT22;16737;50.932;6.780;2023-12-29T09:33:28;13.10;94.40
9984;DHT22;16737;50.932;6.780;2023-12-29T09:35:55;13.20;94.50
9984;DHT22;16737;50.932;6.780;2023-12-29T09:38:22;13.10;94.40
9984;DHT22;16737;50.932;6.780;2023-12-29T09:40:51;13.10;94.50
9984;DHT22;16737;50.932;6.780;2023-12-29T09:43:19;13.10;94.60
9984;DHT22;16737;50.932;6.780;2023-12-29T09:45:47;13.10;94.60
9984;DHT22;16737;50.932;6.780;2023-12-29T09:48:20;13.10;94.60
9984;DHT22;16737;50.932;6.780;2023-12-29T09:50:52;13.20;94.70
9984;DHT22;16737;50.932;6.780;2023-12-29T09:53:20;13.20;94.70
9984;DHT22;16737;50.932;6.780;2023-12-29T09:55:49;13.20;95.00
9984;DHT22;16737;50.932;6.780;2023-12-29T09:58:16;13.20;94.80
9984;DHT22;16737;50.932;6.780;2023-12-29T10:00:47;13.20;94.70
9984;DHT22;16737;50.932;6.780;2023-12-29T10:03:16;13.20;94.80
9984;DHT22;16737;50.932;6.780;2023-12-29T10:05:44;13.20;94.80
9984;DHT22;16737;50.932;6.780;2023-12-29T10:08:18;13.20;94.80
9984;DHT22;16737;50.932;6.780;2023-12-29T10:10:48;13.30;94.90
9984;DHT22;16737;50.932;6.780;2023-12-29T10:13:17;13.30;94.80
9984;DHT22;16737;50.932;6.780;2023-12-29T10:15:49;13.30;94.90
9984;DHT22;16737;50.932;6.780;2023-12-29T10:18:30;13.40;95.00
9984;DHT22;16737;50.932;6.780;2023-12-29T10:21:11;13.40;94.90
9984;DHT22;16737;50.932;6.780;2023-12-29T10:23:50;13.40;95.00
9984;DHT22;16737;50.932;6.780;2023-12-29T10:26:23;13.40;95.30
9984;DHT22;16737;50.932;6.780;2023-12-29T10:28:53;13.40;94.80
9984;DHT22;16737;50.932;6.780;2023-12-29T10:31:20;13.50;94.90
9984;DHT22;16737;50.932;6.780;2023-12-29T10:33:51;13.50;95.00
9984;DHT22;16737;50.932;6.780;2023-12-29T10:36:19;13.50;95.00
9984;DHT22;16737;50.932;6.780;2023-12-29T10:38:48;13.60;95.00
9984;DHT22;16737;50.932;6.780;2023-12-29T10:41:32;13.60;94.90
9984;DHT22;16737;50.932;6.780;2023-12-29T10:44:06;13.60;94.90
9984;DHT22;16737;50.932;6.780;2023-12-29T10:46:34;13.60;95.00
9984;DHT22;16737;50.932;6.780;2023-12-29T10:49:07;13.70;94.90
9984;DHT22;16737;50.932;6.780;2023-12-29T10:51:35;13.70;95.00
9984;DHT22;16737;50.932;6.780;2023-12-29T10:54:04;13.70;94.90
9984;DHT22;16737;50.932;6.780;2023-12-29T10:56:33;13.70;94.90
9984;DHT22;16737;50.932;6.780;2023-12-29T10:59:01;13.70;94.90
9984;DHT22;16737;50.932;6.780;2023-12-29T11:01:29;13.80;94.90
9984;DHT22;16737;50.932;6.780;2023-12-29T11:04:04;13.80;94.90
9984;DHT22;16737;50.932;6.780;2023-12-29T11:06:40;13.90;95.00
9984;DHT22;16737;50.932;6.780;2023-12-29T11:09:11;13.90;94.90
9984;DHT22;16737;50.932;6.780;2023-12-29T11:11:39;13.90;94.80
9984;DHT22;16737;50.932;6.780;2023-12-29T11:14:08;13.90;94.80
9984;DHT22;16737;50.932;6.780;2023-12-29T11:16:36;14.00;95.00
9984;DHT22;16737;50.932;6.780;2023-12-29T11:19:07;14.00;94.90
9984;DHT22;16737;50.932;6.780;2023-12-29T11:21:39;14.00;94.90
9984;DHT22;16737;50.932;6.780;2023-12-29T11:24:08;14.00;94.90
9984;DHT22;16737;50.932;6.780;2023-12-29T11:26:37;14.10;94.90
9984;DHT22;16737;50.932;6.780;2023-12-29T11:29:05;14.10;94.90
9984;DHT22;16737;50.932;6.780;2023-12-29T11:31:34;14.10;94.90
9984;DHT22;16737;50.932;6.780;2023-12-29T11:34:06;14.20;94.90
9984;DHT22;16737;50.932;6.780;2023-12-29T11:36:41;14.20;94.80
9984;DHT22;16737;50.932;6.780;2023-12-29T11:39:19;14.30;94.80
9984;DHT22;16737;50.932;6.780;2023-12-29T11:41:59;14.30;94.80
9984;DHT22;16737;50.932;6.780;2023-12-29T11:44:32;14.30;94.80
9984;DHT22;16737;50.932;6.780;2023-12-29T11:46:59;14.30;94.70
9984;DHT22;16737;50.932;6.780;2023-12-29T11:52:33;14.40;94.80
9984;DHT22;16737;50.932;6.780;2023-12-29T11:55:08;14.50;94.70
9984;DHT22;16737;50.932;6.780;2023-12-29T11:57:37;14.50;94.70
9984;DHT22;16737;50.932;6.780;2023-12-29T12:00:06;14.50;94.60
9984;DHT22;16737;50.932;6.780;2023-12-29T12:02:35;14.60;94.60
9984;DHT22;16737;50.932;6.780;2023-12-29T12:05:03;14.60;94.60
9984;DHT22;16737;50.932;6.780;2023-12-29T12:07:56;14.60;94.50
9984;DHT22;16737;50.932;6.780;2023-12-29T12:10:31;14.60;94.60
9984;DHT22;16737;50.932;6.780;2023-12-29T12:13:00;14.60;94.50
9984;DHT22;16737;50.932;6.780;2023-12-29T12:15:34;14.60;94.50
9984;DHT22;16737;50.932;6.780;2023-12-29T12:18:03;14.60;94.50
9984;DHT22;16737;50.932;6.780;2023-12-29T12:20:33;14.60;94.50
9984;DHT22;16737;50.932;6.780;2023-12-29T12:23:01;14.60;94.50
9984;DHT22;16737;50.932;6.780;2023-12-29T12:25:31;14.60;94.40
9984;DHT22;16737;50.932;6.780;2023-12-29T12:28:05;14.60;94.40
9984;DHT22;16737;50.932;6.780;2023-12-29T12:30:33;14.60;94.50
9984;DHT22;16737;50.932;6.780;2023-12-29T12:33:01;14.70;94.50
9984;DHT22;16737;50.932;6.780;2023-12-29T12:35:30;14.70;94.40
9984;DHT22;16737;50.932;6.780;2023-12-29T12:38:08;14.70;94.40
9984;DHT22;16737;50.932;6.780;2023-12-29T12:40:35;14.70;94.40
9984;DHT22;16737;50.932;6.780;2023-12-29T12:43:05;14.70;94.40
9984;DHT22;16737;50.932;6.780;2023-12-29T12:45:35;14.70;94.40
9984;DHT22;16737;50.932;6.780;2023-12-29T12:48:12;14.60;94.30
9984;DHT22;16737;50.932;6.780;2023-12-29T12:50:46;14.60;94.30
9984;DHT22;16737;50.932;6.780;2023-12-29T12:53:15;14.70;94.30
9984;DHT22;16737;50.932;6.780;2023-12-29T12:55:47;14.60;94.30
9984;DHT22;16737;50.932;6.780;2023-12-29T12:58:17;14.60;94.30
9984;DHT22;16737;50.932;6.780;2023-12-29T13:00:48;14.60;94.30
9984;DHT22;16737;50.932;6.780;2023-12-29T13:03:15;14.60;94.30
9984;DHT22;16737;50.932;6.780;2023-12-29T13:05:43;14.60;94.30
9984;DHT22;16737;50.932;6.780;2023-12-29T13:08:11;14.60;94.30
9984;DHT22;16737;50.932;6.780;2023-12-29T13:10:40;14.60;94.30
9984;DHT22;16737;50.932;6.780;2023-12-29T13:13:08;14.60;94.30
9984;DHT22;16737;50.932;6.780;2023-12-29T13:15:45;14.60;94.30
9984;DHT22;16737;50.932;6.780;2023-12-29T13:18:14;14.60;94.40
9984;DHT22;16737;50.932;6.780;2023-12-29T13:20:44;14.60;94.30
9984;DHT22;16737;50.932;6.780;2023-12-29T13:23:11;14.60;94.30
9984;DHT22;16737;50.932;6.780;2023-12-29T13:25:39;14.60;94.30
9984;DHT22;16737;50.932;6.780;2023-12-29T13:28:07;14.60;94.30
9984;DHT22;16737;50.932;6.780;2023-12-29T13:30:35;14.60;94.30
9984;DHT22;16737;50.932;6.780;2023-12-29T13:33:11;14.60;94.40
9984;DHT22;16737;50.932;6.780;2023-12-29T13:35:47;14.60;94.40
9984;DHT22;16737;50.932;6.780;2023-12-29T13:38:19;14.60;94.40
9984;DHT22;16737;50.932;6.780;2023-12-29T13:40:55;14.50;94.30
9984;DHT22;16737;50.932;6.780;2023-12-29T13:43:26;14.60;94.30
9984;DHT22;16737;50.932;6.780;2023-12-29T13:45:56;14.60;94.30
9984;DHT22;16737;50.932;6.780;2023-12-29T13:48:26;14.50;94.30
9984;DHT22;16737;50.932;6.780;2023-12-29T13:50:54;14.60;94.40
9984;DHT22;16737;50.932;6.780;2023-12-29T13:53:21;14.50;94.30
9984;DHT22;16737;50.932;6.780;2023-12-29T13:55:49;14.50;94.30
9984;DHT22;16737;50.932;6.780;2023-12-29T13:58:16;14.50;94.40
9984;DHT22;16737;50.932;6.780;2023-12-29T14:00:43;14.50;94.70
9984;DHT22;16737;50.932;6.780;2023-12-29T14:03:26;14.50;94.80
9984;DHT22;16737;50.932;6.780;2023-12-29T14:06:00;14.40;94.50
9984;DHT22;16737;50.932;6.780;2023-12-29T14:08:33;14.40;94.50
9984;DHT22;16737;50.932;6.780;2023-12-29T14:11:07;14.40;94.50
9984;DHT22;16737;50.932;6.780;2023-12-29T14:13:35;14.30;94.50
9984;DHT22;16737;50.932;6.780;2023-12-29T14:16:02;14.20;94.50
9984;DHT22;16737;50.932;6.780;2023-12-29T14:18:52;14.20;94.60
9984;DHT22;16737;50.932;6.780;2023-12-29T14:21:21;14.10;94.90
9984;DHT22;16737;50.932;6.780;2023-12-29T14:24:00;14.10;94.70
9984;DHT22;16737;50.932;6.780;2023-12-29T14:26:29;14.00;95.10
9984;DHT22;16737;50.932;6.780;2023-12-29T14:29:03;14.00;94.80
9984;DHT22;16737;50.932;6.780;2023-12-29T14:31:34;13.90;95.00
9984;DHT22;16737;50.932;6.780;2023-12-29T14:34:04;13.90;95.00
9984;DHT22;16737;50.932;6.780;2023-12-29T14:36:31;13.80;95.00
9984;DHT22;16737;50.932;6.780;2023-12-29T14:38:59;13.80;95.10
9984;DHT22;16737;50.932;6.780;2023-12-29T14:41:26;13.80;95.20
9984;DHT22;16737;50.932;6.780;2023-12-29T14:43:54;13.80;95.20
9984;DHT22;16737;50.932;6.780;2023-12-29T14:46:21;13.80;95.30
9984;DHT22;16737;50.932;6.780;2023-12-29T14:48:49;13.80;95.30
9984;DHT22;16737;50.932;6.780;2023-12-29T14:51:18;13.70;95.30
9984;DHT22;16737;50.932;6.780;2023-12-29T14:53:45;13.70;95.40
9984;DHT22;16737;50.932;6.780;2023-12-29T14:56:15;13.70;95.40
9984;DHT22;16737;50.932;6.780;2023-12-29T14:58:44;13.70;95.40
9984;DHT22;16737;50.932;6.780;2023-12-29T15:01:11;13.70;95.40
9984;DHT22;16737;50.932;6.780;2023-12-29T15:03:38;13.70;95.40
9984;DHT22;16737;50.932;6.780;2023-12-29T15:06:06;13.70;95.40
9984;DHT22;16737;50.932;6.780;2023-12-29T15:08:34;13.70;95.40
9984;DHT22;16737;50.932;6.780;2023-12-29T15:11:02;13.70;95.40
9984;DHT22;16737;50.932;6.780;2023-12-29T15:13:30;13.70;95.40
9984;DHT22;16737;50.932;6.780;2023-12-29T15:15:58;13.70;95.40
9984;DHT22;16737;50.932;6.780;2023-12-29T15:18:25;13.70;95.30
9984;DHT22;16737;50.932;6.780;2023-12-29T15:20:53;13.80;95.40
9984;DHT22;16737;50.932;6.780;2023-12-29T15:23:20;13.80;95.40
9984;DHT22;16737;50.932;6.780;2023-12-29T15:25:49;13.80;95.40
9984;DHT22;16737;50.932;6.780;2023-12-29T15:28:17;13.80;95.40
9984;DHT22;16737;50.932;6.780;2023-12-29T15:30:44;13.80;95.40
9984;DHT22;16737;50.932;6.780;2023-12-29T15:33:12;13.80;95.40
9984;DHT22;16737;50.932;6.780;2023-12-29T15:35:39;13.80;95.40
9984;DHT22;16737;50.932;6.780;2023-12-29T15:38:07;13.90;95.40
9984;DHT22;16737;50.932;6.780;2023-12-29T15:40:34;13.80;95.40
9984;DHT22;16737;50.932;6.780;2023-12-29T15:43:03;13.80;95.40
9984;DHT22;16737;50.932;6.780;2023-12-29T15:45:33;13.80;95.40
9984;DHT22;16737;50.932;6.780;2023-12-29T15:48:00;13.80;95.60
9984;DHT22;16737;50.932;6.780;2023-12-29T15:50:27;13.80;95.40
9984;DHT22;16737;50.932;6.780;2023-12-29T15:52:55;13.80;95.50
9984;DHT22;16737;50.932;6.780;2023-12-29T15:55:22;13.80;95.50
9984;DHT22;16737;50.932;6.780;2023-12-29T15:57:50;13.80;95.50